Time;durP1;ratioP1;P1;durP2;ratioP2;P2;SDS_P1;SDS_P2;PMS_P1;PMS_P2;Temp;Humidity;BMP_temperature;BMP_pressure;BME280_temperature;BME280_humidity;BME280_pressure;Samples;Min_cycle;Max_cycle;Signal;HPM_P1;HPM_P2
2022/10/08 00:00:24;;;;;;;;;;;12.30;98.30;;;;;;5050351;28;19913;-73
2022/10/08 00:02:51;;;;;;;;;;;12.30;98.30;;;;;;5050982;28;19920;-73
2022/10/08 00:05:17;;;;;;;;;;;12.30;98.30;;;;;;5050593;28;19962;-73
2022/10/08 00:07:44;;;;;;;;;;;12.30;98.40;;;;;;5051246;28;19909;-73
2022/10/08 00:10:10;;;;;;;;;;;12.20;98.40;;;;;;5051026;28;19924;-73
2022/10/08 00:12:35;;;;;;;;;;;12.20;98.50;;;;;;5051250;28;19912;-74
2022/10/08 00:15:02;;;;;;;;;;;12.20;98.20;;;;;;5049929;28;19932;-73
2022/10/08 00:17:28;;;;;;;;;;;12.20;98.10;;;;;;5050157;28;20246;-73
2022/10/08 00:19:56;;;;;;;;;;;12.40;98.10;;;;;;5051407;28;19908;-73
2022/10/08 00:22:22;;;;;;;;;;;12.40;98.20;;;;;;5050061;28;19913;-73
2022/10/08 00:24:48;;;;;;;;;;;12.40;98.10;;;;;;5051047;28;20277;-74
2022/10/08 00:27:15;;;;;;;;;;;12.40;98.10;;;;;;5049984;28;19909;-72
2022/10/08 00:29:43;;;;;;;;;;;12.40;98.10;;;;;;5050788;28;19923;-73
2022/10/08 00:32:10;;;;;;;;;;;12.40;98.10;;;;;;5050200;28;19915;-73
2022/10/08 00:34:36;;;;;;;;;;;12.40;97.90;;;;;;5050898;28;20227;-73
2022/10/08 00:37:01;;;;;;;;;;;12.40;97.90;;;;;;5050845;28;19923;-73
2022/10/08 00:39:27;;;;;;;;;;;12.50;97.90;;;;;;5050806;28;19909;-73
2022/10/08 00:41:53;;;;;;;;;;;12.40;97.90;;;;;;5050798;28;19908;-73
2022/10/08 00:44:38;;;;;;;;;;;12.50;98.00;;;;;;5083496;28;19915;-73
2022/10/08 00:47:03;;;;;;;;;;;12.40;98.40;;;;;;5050599;28;19912;-73
2022/10/08 00:49:29;;;;;;;;;;;12.40;98.70;;;;;;5050632;28;19919;-73
2022/10/08 00:51:55;;;;;;;;;;;12.30;98.70;;;;;;5066119;28;20312;-72
2022/10/08 00:54:21;;;;;;;;;;;12.30;98.70;;;;;;5050805;28;19951;-73
2022/10/08 00:56:48;;;;;;;;;;;12.40;98.40;;;;;;5050789;28;19955;-73
2022/10/08 00:59:14;;;;;;;;;;;12.30;98.10;;;;;;5051045;28;19905;-73
2022/10/08 01:01:42;;;;;;;;;;;12.40;97.60;;;;;;5051011;28;19908;-73
2022/10/08 01:04:08;;;;;;;;;;;12.50;98.00;;;;;;5053114;28;19920;-73
2022/10/08 01:06:48;;;;;;;;;;;12.40;98.20;;;;;;5054299;28;19962;-73
2022/10/08 01:09:15;;;;;;;;;;;12.40;98.40;;;;;;5052874;28;20027;-74
2022/10/08 01:11:45;;;;;;;;;;;12.40;98.30;;;;;;5054371;28;19948;-73
2022/10/08 01:14:19;;;;;;;;;;;12.40;98.40;;;;;;5054173;28;19912;-74
2022/10/08 01:16:45;;;;;;;;;;;12.40;98.60;;;;;;5054417;28;19998;-73
2022/10/08 01:19:10;;;;;;;;;;;12.40;98.10;;;;;;5053868;28;20388;-72
2022/10/08 01:21:42;;;;;;;;;;;12.40;97.80;;;;;;5053596;28;19920;-72
2022/10/08 01:24:10;;;;;;;;;;;12.40;97.60;;;;;;5053852;28;19919;-73
2022/10/08 01:26:35;;;;;;;;;;;12.50;96.90;;;;;;5053755;28;19966;-72
2022/10/08 01:29:09;;;;;;;;;;;12.50;97.30;;;;;;5054226;28;19917;-72
2022/10/08 01:31:43;;;;;;;;;;;12.50;97.10;;;;;;5069070;28;19923;-72
2022/10/08 01:34:16;;;;;;;;;;;12.60;97.10;;;;;;5053656;28;19909;-72
2022/10/08 01:36:47;;;;;;;;;;;12.50;96.60;;;;;;5038009;28;19913;-73
2022/10/08 01:39:15;;;;;;;;;;;12.60;96.90;;;;;;5032620;28;19909;-72
2022/10/08 01:41:42;;;;;;;;;;;12.60;96.80;;;;;;5033213;28;20529;-72
2022/10/08 01:44:28;;;;;;;;;;;12.60;96.70;;;;;;5033719;28;20154;-73
2022/10/08 01:46:57;;;;;;;;;;;12.60;96.90;;;;;;5033156;28;20297;-73
2022/10/08 01:49:24;;;;;;;;;;;12.60;96.80;;;;;;5048945;28;19913;-73
2022/10/08 01:51:52;;;;;;;;;;;12.60;96.70;;;;;;5033481;28;19909;-73
2022/10/08 01:54:19;;;;;;;;;;;12.70;96.60;;;;;;5033394;28;20280;-73
2022/10/08 01:56:46;;;;;;;;;;;12.60;96.30;;;;;;5033297;28;19940;-72
2022/10/08 01:59:31;;;;;;;;;;;12.70;96.70;;;;;;5033695;28;19909;-73
2022/10/08 02:02:18;;;;;;;;;;;12.70;97.10;;;;;;5033784;28;19923;-73
2022/10/08 02:04:44;;;;;;;;;;;12.70;96.90;;;;;;5012867;28;20004;-73
2022/10/08 02:07:13;;;;;;;;;;;12.70;97.10;;;;;;5013837;28;19992;-73
2022/10/08 02:09:39;;;;;;;;;;;12.70;97.00;;;;;;5013049;28;19913;-74
2022/10/08 02:12:05;;;;;;;;;;;12.70;97.20;;;;;;5013146;28;19913;-72
2022/10/08 02:14:32;;;;;;;;;;;12.60;97.10;;;;;;5012083;28;19932;-72
2022/10/08 02:17:16;;;;;;;;;;;12.60;97.50;;;;;;5013416;28;19910;-73
2022/10/08 02:19:51;;;;;;;;;;;12.50;97.40;;;;;;5012966;28;19928;-72
2022/10/08 02:22:19;;;;;;;;;;;12.60;97.40;;;;;;5011836;28;19971;-72
2022/10/08 02:24:49;;;;;;;;;;;12.50;97.40;;;;;;5013106;28;20561;-73
2022/10/08 02:27:16;;;;;;;;;;;12.60;97.30;;;;;;5013110;28;19913;-73
2022/10/08 02:29:47;;;;;;;;;;;12.50;97.30;;;;;;5011555;28;19917;-71
2022/10/08 02:32:22;;;;;;;;;;;12.50;97.00;;;;;;5013162;28;20378;-72
2022/10/08 02:35:06;;;;;;;;;;;12.50;97.30;;;;;;5032549;28;19910;-72
2022/10/08 02:37:46;;;;;;;;;;;12.50;97.50;;;;;;5032437;28;19913;-72
2022/10/08 02:40:14;;;;;;;;;;;12.50;97.40;;;;;;5032332;28;19959;-72
2022/10/08 02:42:43;;;;;;;;;;;12.50;97.60;;;;;;5032369;28;19936;-73
2022/10/08 02:45:21;;;;;;;;;;;12.40;97.70;;;;;;5031109;28;19996;-72
2022/10/08 02:47:50;;;;;;;;;;;12.40;97.90;;;;;;5031058;28;19924;-72
2022/10/08 02:50:19;;;;;;;;;;;12.40;98.10;;;;;;5032565;28;19928;-71
2022/10/08 02:52:45;;;;;;;;;;;12.30;97.90;;;;;;5032166;28;19909;-72
2022/10/08 02:55:18;;;;;;;;;;;12.30;97.90;;;;;;5032028;28;19909;-72
2022/10/08 02:57:45;;;;;;;;;;;12.30;98.00;;;;;;5030954;28;19936;-71
2022/10/08 03:00:11;;;;;;;;;;;12.30;98.00;;;;;;5031873;28;20330;-72
2022/10/08 03:02:40;;;;;;;;;;;12.40;98.00;;;;;;5031846;28;19909;-72
2022/10/08 03:05:12;;;;;;;;;;;12.40;98.10;;;;;;5032262;28;19940;-73
2022/10/08 03:07:37;;;;;;;;;;;12.30;98.00;;;;;;5032053;28;19916;-73
2022/10/08 03:10:04;;;;;;;;;;;12.40;98.10;;;;;;5031689;28;19913;-74
2022/10/08 03:12:31;;;;;;;;;;;12.50;97.90;;;;;;5030643;28;19920;-73
2022/10/08 03:14:56;;;;;;;;;;;12.50;98.10;;;;;;5031466;28;20388;-72
2022/10/08 03:17:25;;;;;;;;;;;12.60;97.80;;;;;;5031641;28;19992;-71
2022/10/08 03:19:50;;;;;;;;;;;12.70;97.80;;;;;;5031991;28;19995;-74
2022/10/08 03:22:16;;;;;;;;;;;12.70;98.10;;;;;;5030543;28;20024;-73
2022/10/08 03:24:42;;;;;;;;;;;12.70;98.00;;;;;;5030251;28;20016;-74
2022/10/08 03:27:07;;;;;;;;;;;12.80;98.00;;;;;;5030566;28;19931;-73
2022/10/08 03:29:33;;;;;;;;;;;12.80;97.90;;;;;;5031442;28;19964;-73
2022/10/08 03:31:58;;;;;;;;;;;12.90;97.90;;;;;;5031810;28;20257;-72
2022/10/08 03:34:24;;;;;;;;;;;12.90;98.00;;;;;;5031402;28;19935;-72
2022/10/08 03:36:49;;;;;;;;;;;12.90;98.10;;;;;;5030433;28;19909;-72
2022/10/08 03:39:15;;;;;;;;;;;12.90;97.70;;;;;;5031652;28;20273;-72
2022/10/08 03:41:40;;;;;;;;;;;12.90;98.00;;;;;;5031311;28;20012;-72
2022/10/08 03:44:08;;;;;;;;;;;12.90;98.30;;;;;;5030878;28;19909;-73
2022/10/08 03:46:33;;;;;;;;;;;13.00;98.30;;;;;;5031335;28;20354;-71
2022/10/08 03:48:59;;;;;;;;;;;13.10;97.90;;;;;;5029875;28;20002;-72
2022/10/08 03:51:25;;;;;;;;;;;13.20;98.00;;;;;;5031104;28;19913;-73
2022/10/08 03:53:50;;;;;;;;;;;13.20;98.00;;;;;;5031082;28;19909;-72
2022/10/08 03:56:18;;;;;;;;;;;13.30;98.10;;;;;;5031634;28;19987;-73
2022/10/08 03:58:44;;;;;;;;;;;13.30;98.10;;;;;;5029917;28;20335;-73
2022/10/08 04:01:11;;;;;;;;;;;13.30;97.80;;;;;;5031044;28;20362;-72
2022/10/08 04:03:37;;;;;;;;;;;13.40;97.80;;;;;;5031134;28;19919;-73
2022/10/08 04:06:03;;;;;;;;;;;13.40;97.90;;;;;;5031050;28;19909;-73
2022/10/08 04:08:29;;;;;;;;;;;13.50;97.60;;;;;;5029541;28;20354;-72
2022/10/08 04:10:55;;;;;;;;;;;13.50;97.80;;;;;;5031727;28;19897;-72
2022/10/08 04:13:20;;;;;;;;;;;13.60;97.70;;;;;;5031062;28;20000;-73
2022/10/08 04:15:47;;;;;;;;;;;13.60;97.80;;;;;;5063117;28;19925;-72
2022/10/08 04:18:12;;;;;;;;;;;13.70;97.70;;;;;;5030903;28;19974;-72
2022/10/08 04:20:38;;;;;;;;;;;13.70;97.70;;;;;;5030590;28;20354;-73
2022/10/08 04:23:04;;;;;;;;;;;13.70;97.70;;;;;;5031348;28;19901;-73
2022/10/08 04:25:30;;;;;;;;;;;13.70;97.80;;;;;;5029474;28;19909;-72
2022/10/08 04:27:56;;;;;;;;;;;13.70;97.90;;;;;;5029508;28;19909;-72
2022/10/08 04:30:23;;;;;;;;;;;13.70;97.80;;;;;;5030464;28;19971;-72
2022/10/08 04:32:48;;;;;;;;;;;13.80;97.70;;;;;;5030562;28;19909;-73
2022/10/08 04:35:14;;;;;;;;;;;13.80;98.00;;;;;;5031149;28;19915;-73
2022/10/08 04:37:40;;;;;;;;;;;13.80;97.90;;;;;;5032510;28;19935;-73
2022/10/08 04:40:05;;;;;;;;;;;13.80;97.80;;;;;;5033495;28;19920;-73
2022/10/08 04:42:31;;;;;;;;;;;13.90;98.00;;;;;;5034442;28;20431;-73
2022/10/08 04:44:56;;;;;;;;;;;13.80;98.40;;;;;;5034652;28;19964;-73
2022/10/08 04:47:22;;;;;;;;;;;13.90;98.70;;;;;;5034341;28;19905;-73
2022/10/08 04:49:48;;;;;;;;;;;13.90;98.50;;;;;;5033598;28;19999;-73
2022/10/08 04:52:16;;;;;;;;;;;13.90;98.60;;;;;;5034330;28;19909;-73
2022/10/08 04:54:41;;;;;;;;;;;13.90;98.80;;;;;;5034564;28;19913;-73
2022/10/08 04:57:07;;;;;;;;;;;14.00;98.80;;;;;;5034433;28;19936;-74
2022/10/08 04:59:32;;;;;;;;;;;13.90;98.80;;;;;;5034433;28;20335;-73
2022/10/08 05:01:58;;;;;;;;;;;14.00;98.70;;;;;;5034687;28;20247;-73
2022/10/08 05:04:24;;;;;;;;;;;14.00;98.70;;;;;;5034183;28;19920;-74
2022/10/08 05:06:49;;;;;;;;;;;14.00;98.70;;;;;;5034032;28;20447;-73
2022/10/08 05:09:15;;;;;;;;;;;14.00;98.90;;;;;;5034133;28;19917;-72
2022/10/08 05:11:41;;;;;;;;;;;13.90;99.10;;;;;;5034075;28;20335;-74
2022/10/08 05:14:07;;;;;;;;;;;14.00;98.90;;;;;;5066557;28;19935;-73
2022/10/08 05:16:32;;;;;;;;;;;13.90;99.00;;;;;;5032959;28;19909;-74
2022/10/08 05:18:58;;;;;;;;;;;14.00;99.10;;;;;;5033849;28;19909;-73
2022/10/08 05:21:25;;;;;;;;;;;13.90;99.10;;;;;;5033904;28;20340;-73
2022/10/08 05:23:58;;;;;;;;;;;13.90;99.20;;;;;;5033921;28;19909;-73
2022/10/08 05:26:25;;;;;;;;;;;14.00;99.20;;;;;;5033799;28;19905;-73
2022/10/08 05:28:55;;;;;;;;;;;13.90;99.20;;;;;;5034215;28;19904;-73
2022/10/08 05:31:22;;;;;;;;;;;13.90;99.20;;;;;;5033729;28;19915;-74
2022/10/08 05:33:48;;;;;;;;;;;14.00;99.20;;;;;;5033755;28;19939;-74
2022/10/08 05:36:15;;;;;;;;;;;13.90;99.20;;;;;;5034111;28;19908;-74
2022/10/08 05:38:42;;;;;;;;;;;13.90;99.20;;;;;;5033563;28;20014;-74
2022/10/08 05:41:09;;;;;;;;;;;14.00;99.20;;;;;;5034009;28;20055;-73
2022/10/08 05:43:35;;;;;;;;;;;14.00;99.10;;;;;;5032312;28;19913;-74
2022/10/08 05:46:02;;;;;;;;;;;14.10;98.90;;;;;;5033464;28;19936;-74
2022/10/08 05:48:28;;;;;;;;;;;14.10;99.20;;;;;;5033332;28;19924;-73
2022/10/08 05:50:53;;;;;;;;;;;14.00;99.20;;;;;;5032190;28;19909;-73
2022/10/08 05:53:20;;;;;;;;;;;14.00;99.30;;;;;;5033644;28;19936;-74
2022/10/08 05:55:45;;;;;;;;;;;14.00;99.30;;;;;;5033572;28;19923;-72
2022/10/08 05:58:11;;;;;;;;;;;14.10;99.30;;;;;;5033233;28;19991;-73
2022/10/08 06:00:37;;;;;;;;;;;14.00;99.80;;;;;;5033151;28;19941;-74
2022/10/08 06:03:02;;;;;;;;;;;13.90;99.90;;;;;;5032947;28;19919;-74
2022/10/08 06:05:28;;;;;;;;;;;14.00;99.90;;;;;;5031924;28;19920;-74
2022/10/08 06:07:56;;;;;;;;;;;14.00;99.90;;;;;;5033586;28;19955;-72
2022/10/08 06:10:24;;;;;;;;;;;14.00;99.90;;;;;;5033281;28;19916;-73
2022/10/08 06:12:50;;;;;;;;;;;14.00;99.90;;;;;;5032456;28;19963;-74
2022/10/08 06:15:15;;;;;;;;;;;14.10;99.90;;;;;;5032884;28;19925;-73
2022/10/08 06:17:41;;;;;;;;;;;14.10;99.90;;;;;;5032898;28;19923;-74
2022/10/08 06:20:07;;;;;;;;;;;14.10;99.90;;;;;;5033151;28;20011;-74
2022/10/08 06:22:32;;;;;;;;;;;14.00;99.90;;;;;;5033073;28;19920;-73
2022/10/08 06:24:58;;;;;;;;;;;14.10;99.90;;;;;;5032387;28;19913;-73
2022/10/08 06:27:23;;;;;;;;;;;14.10;99.90;;;;;;5033263;28;19999;-72
2022/10/08 06:29:49;;;;;;;;;;;14.20;99.90;;;;;;5033080;28;19913;-73
2022/10/08 06:32:14;;;;;;;;;;;14.20;99.90;;;;;;5033595;28;20321;-74
2022/10/08 06:34:40;;;;;;;;;;;14.20;99.90;;;;;;5032920;28;19909;-76
2022/10/08 06:37:06;;;;;;;;;;;14.20;99.90;;;;;;5033179;28;19992;-71
2022/10/08 06:39:32;;;;;;;;;;;14.10;99.90;;;;;;5033045;28;19913;-73
2022/10/08 06:41:57;;;;;;;;;;;14.20;99.90;;;;;;5033160;28;20004;-73
2022/10/08 06:44:23;;;;;;;;;;;14.20;99.90;;;;;;5032758;28;20361;-74
2022/10/08 06:46:48;;;;;;;;;;;14.30;99.90;;;;;;5033122;28;19901;-73
2022/10/08 06:49:14;;;;;;;;;;;14.30;99.90;;;;;;5033005;28;19928;-74
2022/10/08 06:51:40;;;;;;;;;;;14.30;99.90;;;;;;5031458;28;19920;-73
2022/10/08 06:54:05;;;;;;;;;;;14.30;99.90;;;;;;5031231;28;19913;-74
2022/10/08 06:56:32;;;;;;;;;;;14.30;99.90;;;;;;5032513;28;19916;-75
2022/10/08 06:58:58;;;;;;;;;;;14.30;99.90;;;;;;5034486;28;19994;-74
2022/10/08 07:01:28;;;;;;;;;;;14.30;99.90;;;;;;5050857;28;20322;-75
2022/10/08 07:03:55;;;;;;;;;;;14.30;99.90;;;;;;5051745;28;19909;-75
2022/10/08 07:06:21;;;;;;;;;;;14.40;99.90;;;;;;5052673;28;20027;-74
2022/10/08 07:08:49;;;;;;;;;;;14.40;99.90;;;;;;5052313;28;20388;-74
2022/10/08 07:11:16;;;;;;;;;;;14.40;99.90;;;;;;5051792;28;19962;-74
2022/10/08 07:13:43;;;;;;;;;;;14.40;99.90;;;;;;5052006;28;20202;-74
2022/10/08 07:16:18;;;;;;;;;;;14.40;99.90;;;;;;5051160;28;19944;-74
2022/10/08 07:18:45;;;;;;;;;;;14.40;99.90;;;;;;5052315;28;20211;-73
2022/10/08 07:21:12;;;;;;;;;;;14.40;99.90;;;;;;5052089;28;20249;-74
2022/10/08 07:23:37;;;;;;;;;;;14.40;99.90;;;;;;5052026;28;19953;-74
2022/10/08 07:26:03;;;;;;;;;;;14.50;99.90;;;;;;5052473;28;20338;-75
2022/10/08 07:28:31;;;;;;;;;;;14.40;99.90;;;;;;5051932;28;19920;-73
2022/10/08 07:31:01;;;;;;;;;;;14.40;99.90;;;;;;5051954;28;19912;-71
2022/10/08 07:33:27;;;;;;;;;;;14.40;99.90;;;;;;5051855;28;20339;-72
2022/10/08 07:35:53;;;;;;;;;;;14.50;99.90;;;;;;5051826;28;19909;-72
2022/10/08 07:38:18;;;;;;;;;;;14.50;99.90;;;;;;5052205;28;19904;-73
2022/10/08 07:40:45;;;;;;;;;;;14.60;99.90;;;;;;5051771;28;19909;-72
2022/10/08 07:43:11;;;;;;;;;;;14.60;99.90;;;;;;5051434;28;19966;-71
2022/10/08 07:45:42;;;;;;;;;;;14.60;99.90;;;;;;5051588;28;19912;-73
2022/10/08 07:48:08;;;;;;;;;;;14.60;99.90;;;;;;5051629;28;20038;-72
2022/10/08 07:50:33;;;;;;;;;;;14.70;99.90;;;;;;5051912;28;19909;-71
2022/10/08 07:52:59;;;;;;;;;;;14.70;99.90;;;;;;5052071;28;19900;-70
2022/10/08 07:55:24;;;;;;;;;;;14.50;99.90;;;;;;5051057;28;20250;-71
2022/10/08 07:57:50;;;;;;;;;;;14.60;99.90;;;;;;5050979;28;19919;-70
2022/10/08 08:00:15;;;;;;;;;;;14.60;99.90;;;;;;5050117;28;20262;-72
2022/10/08 08:02:41;;;;;;;;;;;14.50;99.90;;;;;;5050986;28;20342;-72
2022/10/08 08:05:07;;;;;;;;;;;14.50;99.90;;;;;;5048815;28;19912;-72
2022/10/08 08:07:32;;;;;;;;;;;14.40;99.90;;;;;;5050837;28;19913;-72
2022/10/08 08:12:22;;;;;;;17.25;4.22;;;14.30;99.90;;;;;;5040063;27;1437433;-70
2022/10/08 08:14:47;;;;;;;18.02;4.13;;;14.50;99.90;;;;;;5054269;28;20038;-70
2022/10/08 08:17:13;;;;;;;9.65;3.65;;;14.40;99.90;;;;;;5030116;28;20121;-74
2022/10/08 08:19:39;;;;;;;12.60;3.97;;;14.50;99.90;;;;;;5028919;28;20026;-71
2022/10/08 08:22:06;;;;;;;13.43;3.85;;;14.60;99.90;;;;;;5044737;28;20088;-71
2022/10/08 08:24:31;;;;;;;13.18;4.05;;;14.50;99.90;;;;;;5029426;28;20038;-72
2022/10/08 08:26:57;;;;;;;9.13;3.10;;;14.40;99.90;;;;;;5029037;28;20460;-69
2022/10/08 08:29:23;;;;;;;9.93;3.55;;;14.40;99.90;;;;;;5044718;28;20080;-72
2022/10/08 08:31:49;;;;;;;13.65;4.55;;;14.50;99.90;;;;;;5045075;28;20113;-71
2022/10/08 08:34:18;;;;;;;12.60;3.78;;;14.50;99.90;;;;;;5029044;28;20040;-70
2022/10/08 08:36:47;;;;;;;14.13;3.88;;;14.50;99.90;;;;;;5028870;28;20034;-71
2022/10/08 08:39:18;;;;;;;16.65;4.28;;;14.60;99.90;;;;;;5029051;28;20034;-70
2022/10/08 08:42:30;;;;;;;9.48;3.75;;;14.70;99.90;;;;;;5029072;28;20133;-70
2022/10/08 08:45:03;;;;;;;9.57;3.58;;;14.80;99.90;;;;;;5024877;28;20017;-71
2022/10/08 08:47:36;;;;;;;11.93;3.85;;;14.80;99.90;;;;;;5047294;28;20032;-69
2022/10/08 08:50:25;;;;;;;15.45;3.83;;;14.90;99.90;;;;;;5046927;28;20350;-71
2022/10/08 08:52:51;;;;;;;12.10;3.70;;;15.00;99.90;;;;;;5047472;28;20033;-70
2022/10/08 08:55:20;;;;;;;9.90;3.97;;;14.90;99.90;;;;;;5047626;28;20501;-70
2022/10/08 08:58:03;;;;;;;17.83;4.13;;;15.20;99.90;;;;;;5063107;28;20044;-69
2022/10/08 09:00:40;;;;;;;12.38;4.30;;;15.20;99.30;;;;;;5047274;28;20479;-70
2022/10/08 09:03:33;;;;;;;12.43;3.60;;;15.50;99.50;;;;;;5062646;28;20037;-69
2022/10/08 09:06:08;;;;;;;9.25;3.58;;;15.90;98.70;;;;;;5046983;28;20028;-70
2022/10/08 09:08:39;;;;;;;7.93;3.33;;;15.80;98.60;;;;;;5046260;28;20033;-70
2022/10/08 09:11:05;;;;;;;15.23;3.53;;;15.90;98.60;;;;;;5056117;28;20041;-70
2022/10/08 09:13:40;;;;;;;12.30;3.75;;;15.90;98.40;;;;;;5066799;28;20053;-69
2022/10/08 09:16:08;;;;;;;9.57;3.20;;;15.70;98.60;;;;;;5067071;28;20063;-70
2022/10/08 09:18:34;;;;;;;9.40;3.28;;;15.80;98.50;;;;;;5066602;28;20029;-69
2022/10/08 09:21:00;;;;;;;14.30;4.13;;;15.70;98.60;;;;;;5065462;28;20036;-70
2022/10/08 09:23:26;;;;;;;18.05;7.32;;;15.60;98.60;;;;;;5053994;28;20029;-71
2022/10/08 09:26:00;;;;;;;15.25;3.30;;;15.60;98.80;;;;;;5053801;28;20021;-70
2022/10/08 09:28:51;;;;;;;7.88;2.85;;;15.80;98.80;;;;;;5053543;28;20086;-70
2022/10/08 09:31:29;;;;;;;10.45;3.25;;;15.80;98.60;;;;;;5053384;28;20061;-70
2022/10/08 09:33:56;;;;;;;;;;;16.20;98.40;;;;;;5054103;28;20029;-71
2022/10/08 09:36:53;;;;;;;10.85;2.63;;;16.60;97.80;;;;;;5053598;28;19912;-74
2022/10/08 09:39:26;;;;;;;13.88;3.08;;;17.20;97.40;;;;;;5061736;28;20033;-72
2022/10/08 09:42:08;;;;;;;8.07;2.40;;;18.30;96.10;;;;;;5073659;28;20028;-72
2022/10/08 09:44:42;;;;;;;10.55;2.92;;;19.30;94.70;;;;;;5073646;28;20111;-73
2022/10/08 09:47:16;;;;;;;13.95;2.75;;;19.30;92.60;;;;;;5074005;28;20339;-73
2022/10/08 09:49:42;;;;;;;17.83;3.83;;;19.90;92.70;;;;;;5073437;28;20043;-71
2022/10/08 09:52:25;;;;;;;10.65;2.25;;;19.40;92.20;;;;;;5073436;28;20029;-71
2022/10/08 09:55:00;;;;;;;13.23;2.40;;;19.00;92.50;;;;;;5072075;28;20493;-73
2022/10/08 09:57:27;;;;;;;13.27;2.58;;;18.80;93.10;;;;;;5073189;28;20105;-73
2022/10/08 09:59:57;;;;;;;9.63;2.58;;;19.90;92.50;;;;;;5073685;28;20025;-72
2022/10/08 10:02:34;;;;;;;12.38;2.72;;;21.20;91.10;;;;;;5073424;28;20457;-71
2022/10/08 10:05:06;;;;;;;14.98;2.83;;;21.30;90.20;;;;;;5073965;28;20040;-71
2022/10/08 10:07:40;;;;;;;10.48;2.78;;;21.20;89.20;;;;;;5071763;28;20025;-71
2022/10/08 10:10:17;;;;;;;15.52;2.55;;;20.90;90.60;;;;;;5072470;28;20036;-70
2022/10/08 10:12:47;;;;;;;11.43;2.58;;;20.80;90.60;;;;;;5073109;28;20455;-72
2022/10/08 10:15:18;;;;;;;11.93;2.63;;;21.10;90.30;;;;;;5073104;28;20111;-74
2022/10/08 10:18:13;;;;;;;9.68;2.55;;;22.10;88.00;;;;;;5071606;28;20040;-75
2022/10/08 10:20:44;;;;;;;7.15;2.17;;;21.50;89.30;;;;;;5072589;28;20039;-72
2022/10/08 10:23:19;;;;;;;42.13;20.52;;;20.40;89.30;;;;;;5072973;28;20029;-73
2022/10/08 10:25:58;;;;;;;12.07;3.28;;;20.50;90.60;;;;;;5072577;28;20120;-77
2022/10/08 10:28:42;;;;;;;8.65;2.45;;;21.10;89.40;;;;;;5072244;28;20485;-73
2022/10/08 10:31:18;;;;;;;9.43;2.45;;;21.10;88.10;;;;;;5071932;28;20344;-72
2022/10/08 10:33:56;;;;;;;6.57;1.77;;;20.30;88.80;;;;;;5071066;28;20037;-73
2022/10/08 10:36:24;;;;;;;11.50;2.25;;;19.80;90.60;;;;;;5070946;28;20469;-72
2022/10/08 10:39:11;;;;;;;9.63;2.63;;;19.50;90.00;;;;;;5072032;28;20025;-73
2022/10/08 10:41:45;;;;;;;11.40;2.10;;;19.30;90.30;;;;;;5072018;28;20035;-74
2022/10/08 10:44:27;;;;;;;10.77;2.40;;;19.10;91.10;;;;;;5072311;28;20508;-75
2022/10/08 10:46:57;;;;;;;11.52;2.25;;;19.30;91.20;;;;;;5070862;28;20048;-72
2022/10/08 10:49:33;;;;;;;11.30;2.15;;;19.40;90.80;;;;;;5071883;28;20470;-72
2022/10/08 10:52:20;;;;;;;11.25;2.17;;;19.80;90.60;;;;;;5071497;28;20051;-74
2022/10/08 10:55:04;;;;;;;6.03;1.85;;;20.20;88.80;;;;;;5071685;28;20025;-73
2022/10/08 10:58:18;;;;;;;6.88;1.95;;;21.40;86.10;;;;;;5071754;28;20131;-74
2022/10/08 11:01:03;;;;;;;9.90;1.83;;;22.50;85.40;;;;;;5009638;28;20355;-75
2022/10/08 11:04:06;;;;;;;10.68;1.98;;;23.70;81.20;;;;;;5065958;28;20093;-75
2022/10/08 11:06:47;;;;;;;10.27;2.35;;;24.80;77.10;;;;;;5071456;28;20128;-75
2022/10/08 11:09:34;;;;;;;6.53;2.00;;;24.80;76.60;;;;;;5070356;28;20320;-74
2022/10/08 11:12:16;;;;;;;10.60;1.90;;;23.10;76.00;;;;;;5070066;28;20047;-74
2022/10/08 11:15:00;;;;;;;7.30;1.67;;;22.30;79.30;;;;;;5070129;28;20115;-75
2022/10/08 11:17:46;;;;;;;15.95;2.42;;;22.10;79.90;;;;;;5071232;28;20021;-74
2022/10/08 11:20:20;;;;;;;13.60;2.47;;;20.80;83.10;;;;;;5071923;28;20043;-74
2022/10/08 11:23:01;;;;;;;10.80;2.17;;;21.40;83.90;;;;;;5071217;28;20044;-75
2022/10/08 11:25:57;;;;;;;15.00;2.42;;;21.40;82.70;;;;;;5071001;28;20046;-74
2022/10/08 11:28:41;;;;;;;8.00;2.00;;;21.20;82.70;;;;;;5071103;28;20063;-75
2022/10/08 11:31:44;;;;;;;7.40;3.08;;;20.80;83.40;;;;;;5071087;28;20062;-74
2022/10/08 11:34:30;;;;;;;8.93;1.90;;;20.30;85.40;;;;;;5068024;28;20051;-73
2022/10/08 11:37:01;;;;;;;4.25;1.70;;;19.50;86.50;;;;;;5070474;28;20104;-74
2022/10/08 11:39:30;;;;;;;8.32;1.83;;;19.40;88.80;;;;;;5069871;28;20039;-75
2022/10/08 11:42:09;;;;;;;11.20;2.53;;;18.70;90.00;;;;;;5070864;28;20090;-75
2022/10/08 11:44:36;;;;;;;8.73;1.95;;;18.20;91.80;;;;;;5070708;28;20036;-75
2022/10/08 11:47:39;;;;;;;8.95;1.63;;;17.80;92.50;;;;;;5069995;28;20051;-74
2022/10/08 11:50:05;;;;;;;3.38;1.40;;;17.60;93.30;;;;;;5070859;28;20037;-74
2022/10/08 11:52:32;;;;;;;5.00;0.95;;;17.20;93.40;;;;;;5070891;28;20036;-75
2022/10/08 11:55:00;;;;;;;5.05;1.10;;;17.00;93.40;;;;;;5070591;28;20459;-74
2022/10/08 11:57:34;;;;;;;5.95;0.60;;;16.70;93.20;;;;;;5069263;28;20035;-74
2022/10/08 12:00:24;;;;;;;5.05;1.15;;;16.50;93.40;;;;;;5070198;28;20025;-74
2022/10/08 12:02:52;;;;;;;7.38;1.10;;;16.10;94.20;;;;;;5070310;28;20024;-74
2022/10/08 12:05:42;;;;;;;5.75;1.20;;;15.90;95.10;;;;;;5070835;28;20446;-73
2022/10/08 12:08:08;;;;;;;2.90;0.95;;;15.90;95.30;;;;;;5070487;28;20040;-73
2022/10/08 12:10:38;;;;;;;2.03;0.85;;;15.80;95.20;;;;;;5070072;28;20048;-73
2022/10/08 12:13:23;;;;;;;1.85;0.65;;;15.90;94.90;;;;;;5070633;28;20021;-74
2022/10/08 12:15:51;;;;;;;2.55;0.60;;;15.90;94.90;;;;;;5070524;28;20036;-73
2022/10/08 12:18:21;;;;;;;7.25;1.52;;;15.70;94.90;;;;;;5070467;28;20395;-73
2022/10/08 12:21:15;;;;;;;5.60;1.20;;;15.70;94.50;;;;;;5070853;28;20021;-75
2022/10/08 12:23:42;;;;;;;4.40;0.85;;;16.00;94.80;;;;;;5070552;28;20461;-73
2022/10/08 12:26:15;;;;;;;5.78;0.90;;;16.00;94.70;;;;;;5071077;28;20025;-74
2022/10/08 12:28:40;;;;;;;14.70;6.40;;;16.00;94.80;;;;;;5070279;28;20033;-72
2022/10/08 12:31:20;;;;;;;26.80;13.90;;;16.00;94.50;;;;;;5070344;28;20616;-74
2022/10/08 12:34:16;;;;;;;12.90;4.07;;;16.00;94.70;;;;;;5070507;28;20127;-74
2022/10/08 12:36:42;;;;;;;6.40;1.30;;;16.00;94.70;;;;;;5070660;28;20375;-74
2022/10/08 12:39:20;;;;;;;4.70;1.00;;;15.90;95.20;;;;;;5070472;28;20035;-73
2022/10/08 12:42:23;;;;;;;3.10;1.08;;;15.80;95.20;;;;;;5070151;28;20096;-74
2022/10/08 12:45:19;;;;;;;5.97;0.93;;;16.00;95.40;;;;;;5069001;28;20091;-73
2022/10/08 12:48:00;;;;;;;4.68;1.27;;;16.10;95.20;;;;;;5070336;28;20028;-74
2022/10/08 12:50:31;;;;;;;4.80;0.93;;;16.30;95.60;;;;;;5070525;28;20071;-74
2022/10/08 12:53:02;;;;;;;3.20;1.13;;;16.40;94.90;;;;;;5069752;28;20012;-74
2022/10/08 12:55:29;;;;;;;4.35;1.27;;;16.40;94.80;;;;;;5070336;28;20032;-73
2022/10/08 12:57:55;;;;;;;4.70;1.30;;;16.60;95.50;;;;;;5071972;28;20029;-74
2022/10/08 13:00:29;;;;;;;4.57;1.08;;;16.70;95.20;;;;;;5073968;28;20035;-74
2022/10/08 13:03:11;;;;;;;7.15;0.90;;;16.60;95.20;;;;;;5073566;28;20444;-74
2022/10/08 13:05:39;;;;;;;4.60;1.20;;;16.70;94.90;;;;;;5073998;28;20016;-73
2022/10/08 13:08:24;;;;;;;;;;;16.80;95.00;;;;;;5073464;28;20468;-73
2022/10/08 13:10:50;;;;;;;5.13;1.23;;;16.90;95.30;;;;;;5073596;28;19920;-74
2022/10/08 13:13:34;;;;;;;5.35;1.45;;;16.80;95.00;;;;;;5073555;28;20366;-75
2022/10/08 13:16:01;;;;;;;6.45;1.27;;;16.90;95.00;;;;;;5073432;28;20462;-76
2022/10/08 13:18:30;;;;;;;8.77;2.50;;;16.90;94.80;;;;;;5073579;28;20032;-74
2022/10/08 13:21:02;;;;;;;13.50;4.03;;;17.00;94.60;;;;;;5072315;28;20028;-74
2022/10/08 13:23:41;;;;;;;3.60;1.08;;;16.90;94.40;;;;;;5072421;28;20063;-74
2022/10/08 13:26:38;;;;;;;4.50;1.00;;;17.00;94.40;;;;;;5073887;28;20024;-74
2022/10/08 13:29:36;;;;;;;19.02;8.45;;;16.90;94.40;;;;;;5072413;28;20040;-73
2022/10/08 13:32:04;;;;;;;14.93;5.65;;;17.10;94.70;;;;;;5018258;28;20119;-74
2022/10/08 13:34:43;;;;;;;7.07;1.60;;;17.10;94.00;;;;;;5073345;28;20516;-74
2022/10/08 13:37:12;;;;;;;8.38;1.27;;;17.00;93.60;;;;;;5073302;28;20113;-75
2022/10/08 13:39:40;;;;;;;5.13;0.93;;;17.20;93.60;;;;;;5073181;28;20481;-74
2022/10/08 13:42:17;;;;;;;4.97;1.33;;;17.10;93.30;;;;;;5072986;28;20043;-74
2022/10/08 13:44:43;;;;;;;4.68;0.98;;;17.00;93.40;;;;;;5072135;28;20064;-73
2022/10/08 13:47:14;;;;;;;13.80;1.90;;;16.80;92.80;;;;;;5073424;28;20101;-73
2022/10/08 13:49:39;;;;;;;7.05;2.00;;;16.70;94.40;;;;;;5072931;28;20036;-73
2022/10/08 13:52:09;;;;;;;14.85;2.20;;;16.60;94.20;;;;;;5073140;28;20469;-73
2022/10/08 13:54:35;;;;;;;8.88;2.85;;;16.60;94.10;;;;;;5071825;28;20036;-73
2022/10/08 13:57:01;;;;;;;2.92;1.33;;;16.30;93.60;;;;;;5072986;28;20105;-74
2022/10/08 13:59:27;;;;;;;3.75;1.50;;;16.40;94.10;;;;;;5073040;28;20445;-74